createdAt,value
2023-07-30T00:00:10.467Z,14.74
2023-07-30T00:01:10.478Z,14.73
2023-07-30T00:02:10.411Z,14.73
2023-07-30T00:03:10.425Z,14.73
2023-07-30T00:04:10.374Z,14.73
2023-07-30T00:05:10.397Z,14.73
2023-07-30T00:06:10.360Z,14.74
2023-07-30T00:07:10.341Z,14.75
2023-07-30T00:08:10.327Z,14.77
2023-07-30T00:09:10.296Z,14.78
2023-07-30T00:10:10.266Z,14.80
2023-07-30T00:11:10.389Z,14.82
2023-07-30T00:12:10.354Z,14.83
2023-07-30T00:13:10.240Z,14.84
2023-07-30T00:14:10.244Z,14.86
2023-07-30T00:15:10.295Z,14.86
2023-07-30T00:16:10.383Z,14.87
2023-07-30T00:17:10.278Z,14.87
2023-07-30T00:18:10.247Z,14.87
2023-07-30T00:19:10.166Z,14.87
2023-07-30T00:20:10.224Z,14.87
2023-07-30T00:21:10.161Z,14.87
2023-07-30T00:22:10.124Z,14.85
2023-07-30T00:23:10.313Z,14.84
2023-07-30T00:24:10.162Z,14.82
2023-07-30T00:25:10.149Z,14.80
2023-07-30T00:26:10.126Z,14.78
2023-07-30T00:27:10.141Z,14.76
2023-07-30T00:28:10.092Z,14.73
2023-07-30T00:29:10.074Z,14.70
2023-07-30T00:30:10.036Z,14.68
2023-07-30T00:31:10.108Z,14.65
2023-07-30T00:32:10.028Z,14.62
2023-07-30T00:33:10.045Z,14.60
2023-07-30T00:34:09.972Z,14.58
2023-07-30T00:35:10.008Z,14.56
2023-07-30T00:36:09.979Z,14.54
2023-07-30T00:37:09.942Z,14.52
2023-07-30T00:38:09.958Z,14.51
2023-07-30T00:39:09.918Z,14.49
2023-07-30T00:40:09.906Z,14.48
2023-07-30T00:41:09.927Z,14.48
2023-07-30T00:42:09.888Z,14.47
2023-07-30T00:43:09.867Z,14.46
2023-07-30T00:44:09.853Z,14.45
2023-07-30T00:45:09.835Z,14.43
2023-07-30T00:46:09.880Z,14.42
2023-07-30T00:47:09.848Z,14.42
2023-07-30T00:48:09.820Z,14.41
2023-07-30T00:49:09.778Z,14.41
2023-07-30T00:50:09.764Z,14.41
2023-07-30T00:51:09.748Z,14.42
2023-07-30T00:52:09.756Z,14.43
2023-07-30T00:53:09.783Z,14.45
2023-07-30T00:54:09.733Z,14.46
2023-07-30T00:55:09.733Z,14.47
2023-07-30T00:56:09.703Z,14.48
2023-07-30T00:57:09.683Z,14.49
2023-07-30T00:58:09.654Z,14.50
2023-07-30T00:59:09.695Z,14.51
2023-07-30T01:00:09.660Z,14.52
2023-07-30T01:01:09.680Z,14.53
2023-07-30T01:02:09.622Z,14.53
2023-07-30T01:03:09.706Z,14.54
2023-07-30T01:04:09.664Z,14.56
2023-07-30T01:05:09.638Z,14.60
2023-07-30T01:06:09.549Z,14.62
2023-07-30T01:07:09.605Z,14.65
2023-07-30T01:08:09.682Z,14.67
2023-07-30T01:09:09.623Z,14.68
2023-07-30T01:10:09.533Z,14.70
2023-07-30T01:11:09.552Z,14.70
2023-07-30T01:12:09.529Z,14.71
2023-07-30T01:13:09.505Z,14.71
2023-07-30T01:14:09.489Z,14.71
2023-07-30T01:15:09.448Z,14.72
2023-07-30T01:16:09.478Z,14.73
2023-07-30T01:17:09.490Z,14.74
2023-07-30T01:18:09.440Z,14.77
2023-07-30T01:19:09.402Z,14.79
2023-07-30T01:20:09.432Z,14.80
2023-07-30T01:21:09.433Z,14.82
2023-07-30T01:22:09.444Z,14.83
2023-07-30T01:23:09.459Z,14.85
2023-07-30T01:24:09.365Z,14.87
2023-07-30T01:25:09.337Z,14.89
2023-07-30T01:26:09.321Z,14.90
2023-07-30T01:27:09.302Z,14.90
2023-07-30T01:28:09.314Z,14.90
2023-07-30T01:29:09.299Z,14.89
2023-07-30T01:30:09.284Z,14.88
2023-07-30T01:31:09.341Z,14.86
2023-07-30T01:32:09.243Z,14.85
2023-07-30T01:33:09.214Z,14.82
2023-07-30T01:34:09.207Z,14.80
2023-07-30T01:35:09.253Z,14.78
2023-07-30T01:36:09.183Z,14.77
2023-07-30T01:37:09.158Z,14.75
2023-07-30T01:38:09.175Z,14.73
2023-07-30T01:39:09.149Z,14.72
2023-07-30T01:40:09.153Z,14.70
2023-07-30T01:41:09.164Z,14.69
2023-07-30T01:42:09.127Z,14.67
2023-07-30T01:43:09.080Z,14.65
2023-07-30T01:44:09.113Z,14.64
2023-07-30T01:45:09.081Z,14.62
2023-07-30T01:46:09.153Z,14.61
2023-07-30T01:47:09.066Z,14.60
2023-07-30T01:48:09.053Z,14.59
2023-07-30T01:49:09.036Z,14.57
2023-07-30T01:50:09.081Z,14.56
2023-07-30T01:51:08.987Z,14.54
2023-07-30T01:52:08.992Z,14.51
2023-07-30T01:53:08.996Z,14.49
2023-07-30T01:54:08.994Z,14.47
2023-07-30T01:55:08.977Z,14.46
2023-07-30T01:56:08.928Z,14.45
2023-07-30T01:57:08.917Z,14.44
2023-07-30T01:58:08.928Z,14.43
2023-07-30T01:59:08.936Z,14.42
2023-07-30T02:00:08.881Z,14.40
2023-07-30T02:01:08.887Z,14.38
2023-07-30T02:02:08.939Z,14.36
2023-07-30T02:03:08.944Z,14.35
2023-07-30T02:04:08.860Z,14.34
2023-07-30T02:05:08.876Z,14.33
2023-07-30T02:06:08.804Z,14.33
2023-07-30T02:07:08.819Z,14.33
2023-07-30T02:08:08.836Z,14.32
2023-07-30T02:09:08.806Z,14.30
2023-07-30T02:10:08.782Z,14.29
2023-07-30T02:11:08.781Z,14.28
2023-07-30T02:12:08.791Z,14.27
2023-07-30T02:13:08.751Z,14.27
2023-07-30T02:14:08.728Z,14.25
2023-07-30T02:15:08.747Z,14.23
2023-07-30T02:16:08.721Z,14.20
2023-07-30T02:17:08.727Z,14.18
2023-07-30T02:18:08.681Z,14.15
2023-07-30T02:19:08.646Z,14.13
2023-07-30T02:20:08.620Z,14.10
2023-07-30T02:21:08.612Z,14.07
2023-07-30T02:22:08.609Z,14.03
2023-07-30T02:23:08.629Z,14.00
2023-07-30T02:24:08.587Z,13.98
2023-07-30T02:25:08.663Z,13.95
2023-07-30T02:26:08.562Z,13.93
2023-07-30T02:27:08.565Z,13.94
2023-07-30T02:28:08.589Z,13.95
2023-07-30T02:29:08.567Z,13.97
2023-07-30T02:30:08.517Z,13.99
2023-07-30T02:31:08.539Z,14.02
2023-07-30T02:32:08.480Z,14.05
2023-07-30T02:33:08.454Z,14.07
2023-07-30T02:34:08.485Z,14.08
2023-07-30T02:35:08.459Z,14.09
2023-07-30T02:36:08.437Z,14.12
2023-07-30T02:37:08.440Z,14.14
2023-07-30T02:38:08.442Z,14.15
2023-07-30T02:39:08.385Z,14.15
2023-07-30T02:40:08.408Z,14.15
2023-07-30T02:41:08.424Z,14.13
2023-07-30T02:42:08.362Z,14.10
2023-07-30T02:43:08.471Z,14.07
2023-07-30T02:44:08.315Z,14.04
2023-07-30T02:45:08.334Z,14.00
2023-07-30T02:46:08.395Z,13.96
2023-07-30T02:47:08.308Z,13.91
2023-07-30T02:48:08.318Z,13.86
2023-07-30T02:49:08.279Z,13.80
2023-07-30T02:50:08.231Z,13.75
2023-07-30T02:51:08.227Z,13.71
2023-07-30T02:52:08.228Z,13.67
2023-07-30T02:53:08.254Z,13.64
2023-07-30T02:54:08.221Z,13.60
2023-07-30T02:55:08.204Z,13.55
2023-07-30T02:56:08.173Z,13.51
2023-07-30T02:57:08.160Z,13.47
2023-07-30T02:58:08.144Z,13.44
2023-07-30T02:59:08.166Z,13.40
2023-07-30T03:00:08.125Z,13.37
2023-07-30T03:01:08.215Z,13.35
2023-07-30T03:02:08.143Z,13.33
2023-07-30T03:03:08.124Z,13.31
2023-07-30T03:04:08.080Z,13.28
2023-07-30T03:05:08.110Z,13.27
2023-07-30T03:06:08.041Z,13.25
2023-07-30T03:07:08.029Z,13.23
2023-07-30T03:08:08.010Z,13.21
2023-07-30T03:09:08.061Z,13.19
2023-07-30T03:10:08.020Z,13.18
2023-07-30T03:11:08.018Z,13.16
2023-07-30T03:12:07.975Z,13.15
2023-07-30T03:13:07.985Z,13.15
2023-07-30T03:14:07.978Z,13.17
2023-07-30T03:15:07.959Z,13.20
2023-07-30T03:16:07.930Z,13.24
2023-07-30T03:17:07.991Z,13.28
2023-07-30T03:18:08.000Z,13.31
2023-07-30T03:19:07.968Z,13.34
2023-07-30T03:20:07.901Z,13.37
2023-07-30T03:21:07.843Z,13.40
2023-07-30T03:22:07.846Z,13.41
2023-07-30T03:23:07.926Z,13.42
2023-07-30T03:24:07.802Z,13.42
2023-07-30T03:25:07.804Z,13.42
2023-07-30T03:26:07.766Z,13.42
2023-07-30T03:27:07.787Z,13.45
2023-07-30T03:28:07.906Z,13.49
2023-07-30T03:29:07.761Z,13.55
2023-07-30T03:30:07.709Z,13.59
2023-07-30T03:31:07.735Z,13.62
2023-07-30T03:32:07.717Z,13.63
2023-07-30T03:33:07.739Z,13.64
2023-07-30T03:34:07.667Z,13.65
2023-07-30T03:35:07.673Z,13.67
2023-07-30T03:36:07.686Z,13.67
2023-07-30T03:37:07.653Z,13.69
2023-07-30T03:38:07.682Z,13.72
2023-07-30T03:39:07.617Z,13.74
2023-07-30T03:40:07.611Z,13.75
2023-07-30T03:41:07.695Z,13.74
2023-07-30T03:42:07.610Z,13.71
2023-07-30T03:43:07.572Z,13.68
2023-07-30T03:44:07.567Z,13.65
2023-07-30T03:45:07.534Z,13.63
2023-07-30T03:46:07.587Z,13.61
2023-07-30T03:47:07.554Z,13.60
2023-07-30T03:48:07.541Z,13.57
2023-07-30T03:49:07.496Z,13.55
2023-07-30T03:50:07.491Z,13.53
2023-07-30T03:51:07.444Z,13.51
2023-07-30T03:52:07.450Z,13.49
2023-07-30T03:53:07.472Z,13.45
2023-07-30T03:54:07.416Z,13.42
2023-07-30T03:55:07.414Z,13.39
2023-07-30T03:56:07.391Z,13.38
2023-07-30T03:57:07.381Z,13.37
2023-07-30T03:58:07.355Z,13.36
2023-07-30T03:59:07.401Z,13.38
2023-07-30T04:00:07.350Z,13.40
2023-07-30T04:01:07.339Z,13.42
2023-07-30T04:02:07.319Z,13.42
2023-07-30T04:03:07.427Z,13.43
2023-07-30T04:04:07.277Z,13.43
2023-07-30T04:05:07.358Z,13.44
2023-07-30T04:06:07.267Z,13.47
2023-07-30T04:07:07.289Z,13.52
2023-07-30T04:08:07.213Z,13.55
2023-07-30T04:09:07.254Z,13.57
2023-07-30T04:10:07.233Z,13.58
2023-07-30T04:11:07.246Z,13.58
2023-07-30T04:12:07.196Z,13.58
2023-07-30T04:13:07.192Z,13.58
2023-07-30T04:14:07.157Z,13.59
2023-07-30T04:15:07.189Z,13.61
2023-07-30T04:16:07.232Z,13.61
2023-07-30T04:17:07.173Z,13.61
2023-07-30T04:18:07.147Z,13.63
2023-07-30T04:19:07.092Z,13.65
2023-07-30T04:20:07.092Z,13.68
2023-07-30T04:21:07.092Z,13.71
2023-07-30T04:22:07.078Z,13.73
2023-07-30T04:23:07.106Z,13.74
2023-07-30T04:24:07.024Z,13.74
2023-07-30T04:25:07.027Z,13.75
2023-07-30T04:26:07.022Z,13.76
2023-07-30T04:27:07.026Z,13.78
2023-07-30T04:28:07.029Z,13.79
2023-07-30T04:29:07.006Z,13.79
2023-07-30T04:30:06.973Z,13.79
2023-07-30T04:31:06.979Z,13.79
2023-07-30T04:32:06.922Z,13.79
2023-07-30T04:33:06.956Z,13.79
2023-07-30T04:34:06.915Z,13.79
2023-07-30T04:35:06.938Z,13.80
2023-07-30T04:36:06.875Z,13.81
2023-07-30T04:37:06.895Z,13.82
2023-07-30T04:38:06.855Z,13.83
2023-07-30T04:39:06.866Z,13.85
2023-07-30T04:40:06.819Z,13.86
2023-07-30T04:41:06.867Z,13.87
2023-07-30T04:42:06.811Z,13.89
2023-07-30T04:43:06.801Z,13.91
2023-07-30T04:44:06.779Z,13.94
2023-07-30T04:45:06.753Z,13.97
2023-07-30T04:46:06.787Z,14.00
2023-07-30T04:47:06.800Z,14.04
2023-07-30T04:48:06.807Z,14.08
2023-07-30T04:49:06.744Z,14.12
2023-07-30T04:50:06.689Z,14.17
2023-07-30T04:51:06.707Z,14.21
2023-07-30T04:52:06.685Z,14.25
2023-07-30T04:53:06.832Z,14.30
2023-07-30T04:54:06.688Z,14.33
2023-07-30T04:55:06.641Z,14.38
2023-07-30T04:56:06.635Z,14.41
2023-07-30T04:57:06.630Z,14.44
2023-07-30T04:58:06.613Z,14.47
2023-07-30T04:59:06.632Z,14.50
2023-07-30T05:00:06.580Z,14.53
2023-07-30T05:01:06.582Z,14.57
2023-07-30T05:02:06.653Z,14.61
2023-07-30T05:03:06.647Z,14.66
2023-07-30T05:04:06.511Z,14.70
2023-07-30T05:05:06.577Z,14.74
2023-07-30T05:06:06.477Z,14.78
2023-07-30T05:07:06.478Z,14.81
2023-07-30T05:08:06.464Z,14.85
2023-07-30T05:09:06.445Z,14.89
2023-07-30T05:10:06.453Z,14.93
2023-07-30T05:11:06.459Z,14.97
2023-07-30T05:12:06.438Z,15.00
2023-07-30T05:13:06.393Z,15.03
2023-07-30T05:14:06.392Z,15.07
2023-07-30T05:15:06.372Z,15.10
2023-07-30T05:16:06.418Z,15.12
2023-07-30T05:17:06.474Z,15.16
2023-07-30T05:18:06.405Z,15.19
2023-07-30T05:19:06.336Z,15.22
2023-07-30T05:20:06.327Z,15.26
2023-07-30T05:21:06.296Z,15.30
2023-07-30T05:22:06.304Z,15.34
2023-07-30T05:23:06.348Z,15.37
2023-07-30T05:24:06.255Z,15.41
2023-07-30T05:25:06.277Z,15.45
2023-07-30T05:26:06.230Z,15.49
2023-07-30T05:27:06.240Z,15.54
2023-07-30T05:28:06.235Z,15.57
2023-07-30T05:29:06.218Z,15.59
2023-07-30T05:30:06.183Z,15.63
2023-07-30T05:31:06.153Z,15.68
2023-07-30T05:32:06.230Z,15.73
2023-07-30T05:33:06.170Z,15.78
2023-07-30T05:34:06.164Z,15.82
2023-07-30T05:35:06.206Z,15.88
2023-07-30T05:36:06.126Z,15.96
2023-07-30T05:37:06.109Z,16.05
2023-07-30T05:38:06.114Z,16.16
2023-07-30T05:39:06.092Z,16.28
2023-07-30T05:40:06.079Z,16.40
2023-07-30T05:41:06.093Z,16.49
2023-07-30T05:42:06.049Z,16.52
2023-07-30T05:43:06.008Z,16.53
2023-07-30T05:44:06.001Z,16.53
2023-07-30T05:45:05.992Z,16.53
2023-07-30T05:46:06.011Z,16.52
2023-07-30T05:47:06.001Z,16.51
2023-07-30T05:48:05.964Z,16.49
2023-07-30T05:49:05.934Z,16.48
2023-07-30T05:50:05.916Z,16.46
2023-07-30T05:51:05.914Z,16.46
2023-07-30T05:52:05.895Z,16.49
2023-07-30T05:53:05.939Z,16.58
2023-07-30T05:54:05.915Z,16.71
2023-07-30T05:55:05.849Z,16.87
2023-07-30T05:56:05.886Z,17.03
2023-07-30T05:57:05.831Z,17.14
2023-07-30T05:58:05.849Z,17.16
2023-07-30T05:59:05.847Z,17.13
2023-07-30T06:00:05.807Z,17.09
2023-07-30T06:01:05.834Z,17.06
2023-07-30T06:02:05.765Z,17.07
2023-07-30T06:03:05.789Z,17.10
2023-07-30T06:04:05.806Z,17.15
2023-07-30T06:05:05.750Z,17.20
2023-07-30T06:06:05.734Z,17.23
2023-07-30T06:07:05.744Z,17.26
2023-07-30T06:08:06.696Z,17.29
2023-07-30T06:09:05.715Z,17.33
2023-07-30T06:10:05.659Z,17.41
2023-07-30T06:11:05.710Z,17.51
2023-07-30T06:12:05.654Z,17.60
2023-07-30T06:13:05.676Z,17.70
2023-07-30T06:14:05.652Z,17.82
2023-07-30T06:15:05.610Z,18.00
2023-07-30T06:16:05.784Z,18.22
2023-07-30T06:17:05.751Z,18.44
2023-07-30T06:18:05.576Z,18.65
2023-07-30T06:19:05.555Z,18.79
2023-07-30T06:20:05.559Z,18.88
2023-07-30T06:21:05.531Z,18.92
2023-07-30T06:22:05.512Z,18.95
2023-07-30T06:23:05.779Z,19.00
2023-07-30T06:24:05.518Z,19.06
2023-07-30T06:25:05.490Z,19.09
2023-07-30T06:26:05.454Z,19.09
2023-07-30T06:27:05.480Z,19.06
2023-07-30T06:28:05.463Z,19.02
2023-07-30T06:29:05.457Z,18.94
2023-07-30T06:30:05.486Z,18.83
2023-07-30T06:31:05.425Z,18.73
2023-07-30T06:32:05.386Z,18.65
2023-07-30T06:33:05.399Z,18.57
2023-07-30T06:34:05.348Z,18.49
2023-07-30T06:35:05.389Z,18.45
2023-07-30T06:36:05.352Z,18.46
2023-07-30T06:37:05.318Z,18.49
2023-07-30T06:38:05.302Z,18.53
2023-07-30T06:39:05.334Z,18.58
2023-07-30T06:40:05.312Z,18.63
2023-07-30T06:41:05.290Z,18.66
2023-07-30T06:42:05.247Z,18.68
2023-07-30T06:43:05.272Z,18.69
2023-07-30T06:44:05.255Z,18.67
2023-07-30T06:45:05.254Z,18.64
2023-07-30T06:46:05.225Z,18.60
2023-07-30T06:47:05.333Z,18.60
2023-07-30T06:48:05.226Z,18.68
2023-07-30T06:49:05.185Z,18.87
2023-07-30T06:50:05.253Z,19.14
2023-07-30T06:51:05.218Z,19.44
2023-07-30T06:52:05.176Z,19.67
2023-07-30T06:53:05.200Z,19.90
2023-07-30T06:54:05.099Z,20.14
2023-07-30T06:55:05.117Z,20.30
2023-07-30T06:56:05.103Z,20.30
2023-07-30T06:57:05.085Z,20.26
2023-07-30T06:58:05.097Z,20.29
2023-07-30T06:59:05.089Z,20.30
2023-07-30T07:00:05.033Z,20.21
2023-07-30T07:01:05.111Z,20.08
2023-07-30T07:02:04.999Z,20.07
2023-07-30T07:03:05.196Z,20.27
2023-07-30T07:04:05.035Z,20.55
2023-07-30T07:05:05.008Z,20.63
2023-07-30T07:06:04.968Z,20.53
2023-07-30T07:07:05.001Z,20.40
2023-07-30T07:08:04.934Z,20.30
2023-07-30T07:09:04.915Z,20.19
2023-07-30T07:10:04.928Z,20.04
2023-07-30T07:11:04.970Z,19.91
2023-07-30T07:12:04.898Z,19.91
2023-07-30T07:13:04.898Z,20.10
2023-07-30T07:14:04.871Z,20.40
2023-07-30T07:15:04.900Z,20.68
2023-07-30T07:16:04.919Z,20.81
2023-07-30T07:17:05.049Z,20.95
2023-07-30T07:18:04.837Z,21.02
2023-07-30T07:19:04.866Z,21.18
2023-07-30T07:20:04.828Z,21.47
2023-07-30T07:21:04.871Z,21.68
2023-07-30T07:22:04.883Z,22.12
2023-07-30T07:23:04.797Z,22.74
2023-07-30T07:24:04.763Z,23.19
2023-07-30T07:25:04.765Z,23.66
2023-07-30T07:26:04.722Z,23.91
2023-07-30T07:27:04.740Z,23.69
2023-07-30T07:28:04.715Z,23.26
2023-07-30T07:29:04.725Z,22.90
2023-07-30T07:30:04.693Z,22.69
2023-07-30T07:31:04.726Z,22.48
2023-07-30T07:32:04.648Z,22.22
2023-07-30T07:33:04.649Z,22.03
2023-07-30T07:34:04.634Z,21.87
2023-07-30T07:35:04.638Z,21.75
2023-07-30T07:36:04.601Z,21.92
2023-07-30T07:37:04.645Z,22.31
2023-07-30T07:38:04.630Z,22.57
2023-07-30T07:39:04.560Z,22.64
2023-07-30T07:40:04.551Z,22.95
2023-07-30T07:41:04.593Z,23.27
2023-07-30T07:42:04.535Z,23.21
2023-07-30T07:43:04.535Z,23.02
2023-07-30T07:44:04.537Z,22.99
2023-07-30T07:45:04.489Z,22.95
2023-07-30T07:46:04.583Z,23.00
2023-07-30T07:47:04.590Z,23.31
2023-07-30T07:48:04.532Z,23.77
2023-07-30T07:49:04.455Z,24.26
2023-07-30T07:50:04.468Z,24.73
2023-07-30T07:51:04.453Z,24.77
2023-07-30T07:52:04.418Z,24.70
2023-07-30T07:53:04.462Z,24.60
2023-07-30T07:54:04.506Z,24.45
2023-07-30T07:55:04.407Z,24.24
2023-07-30T07:56:04.401Z,23.90
2023-07-30T07:57:04.404Z,23.55
2023-07-30T07:58:04.380Z,23.20
2023-07-30T07:59:04.403Z,22.83
2023-07-30T08:00:04.386Z,22.82
2023-07-30T08:01:04.319Z,23.13
2023-07-30T08:02:04.396Z,23.25
2023-07-30T08:03:04.390Z,23.43
2023-07-30T08:04:04.376Z,23.64
2023-07-30T08:05:04.374Z,23.68
2023-07-30T08:06:04.326Z,23.67
2023-07-30T08:07:04.260Z,23.77
2023-07-30T08:08:04.250Z,23.87
2023-07-30T08:09:04.251Z,23.94
2023-07-30T08:10:04.216Z,24.01
2023-07-30T08:11:04.232Z,23.90
2023-07-30T08:12:04.202Z,23.64
2023-07-30T08:13:04.171Z,23.38
2023-07-30T08:14:04.161Z,23.36
2023-07-30T08:15:04.160Z,23.32
2023-07-30T08:16:04.221Z,23.42
2023-07-30T08:17:04.177Z,23.80
2023-07-30T08:18:04.152Z,24.15
2023-07-30T08:19:04.130Z,24.65
2023-07-30T08:20:04.095Z,25.18
2023-07-30T08:21:04.094Z,25.40
2023-07-30T08:22:04.109Z,25.61
2023-07-30T08:23:04.106Z,25.89
2023-07-30T08:24:04.065Z,25.96
2023-07-30T08:25:04.178Z,25.82
2023-07-30T08:26:04.042Z,25.50
2023-07-30T08:27:04.036Z,25.27
2023-07-30T08:28:04.103Z,25.15
2023-07-30T08:29:04.028Z,25.25
2023-07-30T08:30:04.004Z,25.50
2023-07-30T08:31:04.039Z,25.66
2023-07-30T08:32:04.017Z,25.60
2023-07-30T08:33:03.999Z,25.32
2023-07-30T08:34:03.944Z,25.08
2023-07-30T08:35:04.022Z,24.84
2023-07-30T08:36:03.925Z,24.85
2023-07-30T08:37:03.924Z,25.10
2023-07-30T08:38:03.926Z,25.15
2023-07-30T08:39:03.911Z,25.06
2023-07-30T08:40:03.940Z,24.85
2023-07-30T08:41:03.927Z,24.51
2023-07-30T08:42:03.964Z,24.21
2023-07-30T08:43:03.864Z,24.20
2023-07-30T08:44:03.883Z,24.60
2023-07-30T08:45:03.882Z,25.15
2023-07-30T08:46:03.883Z,25.68
2023-07-30T08:47:03.857Z,26.17
2023-07-30T08:48:04.940Z,26.62
2023-07-30T08:49:03.797Z,27.09
2023-07-30T08:50:03.807Z,27.60
2023-07-30T08:51:03.914Z,27.97
2023-07-30T08:52:03.828Z,28.27
2023-07-30T08:53:03.814Z,28.51
2023-07-30T08:54:03.759Z,28.63
2023-07-30T08:55:03.738Z,28.38
2023-07-30T08:56:03.752Z,28.10
2023-07-30T08:57:03.732Z,28.03
2023-07-30T08:58:03.773Z,28.28
2023-07-30T08:59:03.749Z,28.43
2023-07-30T09:00:03.712Z,28.05
2023-07-30T09:01:03.700Z,27.44
2023-07-30T09:02:03.721Z,26.90
2023-07-30T09:03:03.693Z,26.41
2023-07-30T09:04:03.674Z,26.02
2023-07-30T09:05:03.783Z,25.79
2023-07-30T09:06:03.653Z,25.72
2023-07-30T09:07:03.643Z,25.93
2023-07-30T09:08:03.658Z,26.27
2023-07-30T09:09:03.624Z,26.53
2023-07-30T09:10:03.608Z,26.84
2023-07-30T09:11:03.619Z,27.21
2023-07-30T09:12:03.572Z,27.43
2023-07-30T09:13:03.602Z,27.54
2023-07-30T09:14:03.569Z,27.73
2023-07-30T09:15:03.537Z,27.92
2023-07-30T09:16:03.631Z,27.95
2023-07-30T09:17:03.567Z,27.77
2023-07-30T09:18:03.680Z,27.42
2023-07-30T09:19:03.541Z,27.09
2023-07-30T09:20:03.497Z,26.82
2023-07-30T09:21:03.523Z,26.55
2023-07-30T09:22:03.477Z,26.27
2023-07-30T09:23:03.564Z,26.05
2023-07-30T09:24:03.457Z,25.86
2023-07-30T09:25:03.456Z,25.62
2023-07-30T09:26:03.446Z,25.42
2023-07-30T09:27:03.449Z,25.37
2023-07-30T09:28:03.429Z,25.68
2023-07-30T09:29:03.458Z,26.38
2023-07-30T09:30:03.388Z,27.15
2023-07-30T09:31:19.210Z,27.84
2023-07-30T09:32:03.423Z,28.30
2023-07-30T09:33:03.443Z,28.54
2023-07-30T09:34:03.365Z,28.81
2023-07-30T09:35:03.394Z,28.98
2023-07-30T09:36:03.340Z,29.01
2023-07-30T09:37:03.332Z,28.86
2023-07-30T09:38:03.375Z,28.59
2023-07-30T09:39:03.304Z,28.27
2023-07-30T09:40:03.310Z,28.04
2023-07-30T09:41:03.352Z,28.13
2023-07-30T09:42:03.288Z,28.44
2023-07-30T09:43:03.269Z,28.66
2023-07-30T09:44:03.319Z,28.85
2023-07-30T09:45:03.265Z,29.09
2023-07-30T09:46:03.308Z,29.43
2023-07-30T09:47:03.292Z,29.86
2023-07-30T09:48:03.328Z,30.19
2023-07-30T09:49:03.261Z,30.26
2023-07-30T09:50:03.233Z,30.13
2023-07-30T09:51:03.225Z,29.79
2023-07-30T09:52:03.216Z,29.22
2023-07-30T09:53:03.348Z,28.55
2023-07-30T09:54:03.194Z,27.90
2023-07-30T09:55:03.213Z,27.34
2023-07-30T09:56:03.168Z,26.85
2023-07-30T09:57:03.163Z,26.45
2023-07-30T09:58:03.148Z,26.11
2023-07-30T09:59:05.855Z,25.77
2023-07-30T10:00:03.279Z,25.45
2023-07-30T10:01:03.141Z,25.14
2023-07-30T10:02:03.092Z,24.85
2023-07-30T10:03:03.198Z,24.76
2023-07-30T10:04:03.073Z,24.77
2023-07-30T10:05:03.137Z,24.93
2023-07-30T10:06:03.241Z,25.24
2023-07-30T10:07:03.050Z,25.45
2023-07-30T10:08:03.049Z,25.88
2023-07-30T10:09:03.031Z,26.55
2023-07-30T10:10:03.005Z,27.16
2023-07-30T10:11:03.042Z,27.42
2023-07-30T10:12:03.020Z,27.43
2023-07-30T10:13:02.984Z,27.28
2023-07-30T10:14:02.981Z,27.00
2023-07-30T10:15:02.972Z,26.82
2023-07-30T10:16:02.943Z,26.77
2023-07-30T10:17:03.063Z,26.57
2023-07-30T10:18:04.746Z,26.12
2023-07-30T10:19:02.919Z,25.56
2023-07-30T10:20:02.903Z,25.11
2023-07-30T10:21:02.918Z,25.01
2023-07-30T10:22:02.890Z,25.39
2023-07-30T10:23:02.924Z,26.07
2023-07-30T10:24:03.346Z,26.77
2023-07-30T10:25:02.861Z,27.40
2023-07-30T10:26:02.859Z,27.82
2023-07-30T10:27:02.844Z,27.92
2023-07-30T10:28:02.923Z,27.80
2023-07-30T10:29:02.858Z,27.79
2023-07-30T10:30:02.915Z,27.89
2023-07-30T10:31:02.863Z,27.96
2023-07-30T10:32:02.812Z,27.77
2023-07-30T10:33:02.962Z,27.41
2023-07-30T10:34:02.803Z,27.15
2023-07-30T10:35:02.812Z,27.13
2023-07-30T10:36:03.318Z,27.45
2023-07-30T10:37:02.738Z,27.71
2023-07-30T10:38:02.746Z,27.76
2023-07-30T10:39:02.733Z,27.90
2023-07-30T10:40:02.734Z,28.12
2023-07-30T10:41:02.758Z,28.27
2023-07-30T10:42:04.068Z,28.42
2023-07-30T10:43:02.692Z,28.56
2023-07-30T10:44:02.711Z,28.77
2023-07-30T10:45:02.695Z,28.94
2023-07-30T10:46:02.718Z,28.77
2023-07-30T10:47:02.751Z,28.34
2023-07-30T10:48:02.688Z,27.81
2023-07-30T10:49:02.649Z,27.29
2023-07-30T10:50:02.651Z,26.92
2023-07-30T10:51:02.609Z,26.67
2023-07-30T10:52:02.629Z,26.67
2023-07-30T10:53:02.745Z,26.99
2023-07-30T10:54:02.605Z,27.22
2023-07-30T10:55:02.582Z,27.29
2023-07-30T10:56:02.595Z,27.34
2023-07-30T10:57:02.563Z,27.54
2023-07-30T10:58:02.545Z,27.78
2023-07-30T10:59:02.637Z,28.08
2023-07-30T11:00:02.557Z,28.47
2023-07-30T11:01:02.548Z,28.70
2023-07-30T11:02:02.620Z,28.56
2023-07-30T11:03:02.609Z,28.51
2023-07-30T11:04:02.564Z,28.77
2023-07-30T11:05:02.610Z,28.89
2023-07-30T11:06:02.496Z,28.51
2023-07-30T11:07:02.489Z,27.83
2023-07-30T11:08:02.466Z,27.43
2023-07-30T11:09:02.458Z,27.33
2023-07-30T11:10:02.472Z,27.51
2023-07-30T11:11:02.485Z,27.88
2023-07-30T11:12:02.423Z,27.96
2023-07-30T11:13:02.425Z,27.57
2023-07-30T11:14:02.424Z,27.01
2023-07-30T11:15:02.416Z,26.44
2023-07-30T11:16:02.407Z,25.95
2023-07-30T11:17:02.428Z,25.75
2023-07-30T11:18:02.461Z,26.04
2023-07-30T11:19:02.367Z,26.58
2023-07-30T11:20:02.390Z,26.91
2023-07-30T11:21:02.345Z,27.01
2023-07-30T11:22:02.366Z,26.86
2023-07-30T11:23:02.356Z,26.46
2023-07-30T11:24:02.323Z,25.96
2023-07-30T11:25:02.300Z,25.39
2023-07-30T11:26:02.287Z,24.87
2023-07-30T11:27:02.322Z,24.49
2023-07-30T11:28:02.310Z,24.18
2023-07-30T11:29:02.294Z,23.92
2023-07-30T11:30:02.264Z,23.91
2023-07-30T11:31:02.222Z,24.15
2023-07-30T11:32:02.244Z,24.38
2023-07-30T11:33:02.284Z,24.70
2023-07-30T11:34:02.216Z,25.25
2023-07-30T11:35:02.208Z,25.76
2023-07-30T11:36:02.208Z,26.19
2023-07-30T11:37:02.175Z,26.66
2023-07-30T11:38:02.151Z,26.92
2023-07-30T11:39:02.143Z,26.91
2023-07-30T11:40:02.170Z,26.61
2023-07-30T11:41:02.178Z,26.40
2023-07-30T11:42:02.125Z,26.32
2023-07-30T11:43:02.128Z,26.04
2023-07-30T11:44:02.100Z,25.89
2023-07-30T11:45:02.107Z,26.12
2023-07-30T11:46:02.097Z,26.30
2023-07-30T11:47:02.123Z,26.37
2023-07-30T11:48:02.091Z,26.51
2023-07-30T11:49:02.150Z,26.77
2023-07-30T11:50:02.059Z,27.02
2023-07-30T11:51:02.058Z,27.22
2023-07-30T11:52:02.033Z,27.35
2023-07-30T11:53:02.072Z,27.45
2023-07-30T11:54:02.016Z,27.47
2023-07-30T11:55:02.062Z,27.10
2023-07-30T11:56:02.032Z,26.75
2023-07-30T11:57:02.045Z,26.51
2023-07-30T11:58:01.978Z,26.30
2023-07-30T11:59:02.022Z,26.30
2023-07-30T12:00:01.991Z,26.49
2023-07-30T12:01:02.148Z,26.80
2023-07-30T12:02:01.974Z,27.17
2023-07-30T12:03:01.981Z,27.59
2023-07-30T12:04:02.079Z,28.00
2023-07-30T12:05:11.549Z,28.37
2023-07-30T12:06:01.919Z,28.57
2023-07-30T12:07:01.933Z,28.65
2023-07-30T12:08:01.896Z,28.71
2023-07-30T12:09:01.896Z,28.76
2023-07-30T12:10:01.953Z,28.78
2023-07-30T12:11:01.954Z,28.80
2023-07-30T12:12:02.269Z,28.82
2023-07-30T12:13:03.193Z,28.86
2023-07-30T12:14:01.890Z,28.94
2023-07-30T12:15:01.875Z,28.97
2023-07-30T12:16:01.908Z,28.90
2023-07-30T12:17:01.941Z,28.81
2023-07-30T12:18:01.876Z,28.82
2023-07-30T12:19:01.825Z,28.93
2023-07-30T12:20:01.949Z,29.02
2023-07-30T12:21:01.829Z,29.04
2023-07-30T12:22:02.525Z,29.07
2023-07-30T12:23:02.647Z,29.08
2023-07-30T12:24:02.439Z,29.01
2023-07-30T12:25:02.453Z,28.87
2023-07-30T12:26:02.462Z,28.72
2023-07-30T12:27:02.471Z,28.64
2023-07-30T12:28:02.432Z,28.53
2023-07-30T12:29:02.584Z,28.45
2023-07-30T12:30:02.431Z,28.44
2023-07-30T12:31:04.418Z,28.50
2023-07-30T12:32:04.372Z,28.60
2023-07-30T12:33:04.735Z,28.66
2023-07-30T12:34:02.497Z,28.61
2023-07-30T12:35:02.411Z,28.37
2023-07-30T12:36:02.434Z,28.00
2023-07-30T12:37:01.670Z,27.55
2023-07-30T12:38:01.647Z,27.06
2023-07-30T12:39:01.656Z,26.61
2023-07-30T12:40:01.635Z,26.21
2023-07-30T12:41:01.678Z,25.86
2023-07-30T12:42:01.639Z,25.57
2023-07-30T12:43:01.647Z,25.31
2023-07-30T12:44:01.599Z,25.08
2023-07-30T12:45:01.581Z,24.91
2023-07-30T12:46:01.678Z,24.82
2023-07-30T12:47:01.595Z,24.81
2023-07-30T12:48:01.603Z,24.78
2023-07-30T12:49:01.605Z,24.75
2023-07-30T12:50:01.538Z,24.65
2023-07-30T12:51:01.522Z,24.50
2023-07-30T12:52:01.517Z,24.42